Labrador City, Canada
Current Conditions -  °F | °C
As of 9:00 AM on Saturday 25 Oct 2014 (Local Time) from CYWK Reporting Station
Overcast Overcast  
Wind Chill: 26°   Ceiling: 400
Heat Index: 32°   Visibility: 15mi
Dew Point: 30°   Wind: 7mph
Humidity: 93%   Direction: 100°E
Pressure: 29.74"   Gusts: NA
Location:  52.95°N, 66.91°W
Report Text: CYWK 251200Z 10006KT 15SM OVC004 00/M01 A2974 RMK SC8 SLP098
Loading
Personal Weather Stations






























Interactive Weather Map
Tropical Storm Tracking
New forecast layout! Learn more

10-Day Weather Forecast

Advertisements
Track Severe Weather on mobile